createdAt,value
2022-07-29T00:02:44.166Z,76.05
2022-07-29T00:05:46.518Z,76.24
2022-07-29T00:08:48.780Z,76.79
2022-07-29T00:11:51.069Z,77.24
2022-07-29T00:14:57.382Z,77.80
2022-07-29T00:17:59.705Z,79.68
2022-07-29T00:21:01.964Z,81.52
2022-07-29T00:24:04.645Z,82.15
2022-07-29T00:27:07.146Z,80.26
2022-07-29T00:30:09.772Z,78.72
2022-07-29T00:33:12.013Z,78.71
2022-07-29T00:36:14.355Z,77.51
2022-07-29T00:39:16.576Z,76.51
2022-07-29T00:42:18.893Z,76.19
2022-07-29T00:45:21.215Z,76.69
2022-07-29T00:48:23.511Z,76.85
2022-07-29T00:51:28.119Z,77.38
2022-07-29T00:54:31.211Z,78.06
2022-07-29T00:57:34.335Z,78.81
2022-07-29T01:00:37.864Z,79.10
2022-07-29T01:03:40.224Z,78.16
2022-07-29T01:06:43.636Z,77.36
2022-07-29T01:09:47.308Z,77.70
2022-07-29T01:12:52.346Z,78.49
2022-07-29T01:16:10.440Z,79.25
2022-07-29T01:19:49.931Z,81.55
2022-07-29T01:23:06.373Z,80.78
2022-07-29T01:26:20.509Z,80.71
2022-07-29T01:29:40.548Z,79.61
2022-07-29T01:32:51.192Z,79.00
2022-07-29T01:35:53.566Z,78.96
2022-07-29T01:39:04.081Z,77.73
2022-07-29T01:42:27.542Z,78.07
2022-07-29T01:45:32.475Z,78.97
2022-07-29T01:48:48.310Z,79.33
2022-07-29T01:52:01.689Z,79.70
2022-07-29T01:55:17.662Z,79.34
2022-07-29T01:58:21.709Z,82.04
2022-07-29T02:01:26.056Z,83.61
2022-07-29T02:04:30.443Z,83.27
2022-07-29T02:07:36.689Z,81.97
2022-07-29T02:10:41.082Z,80.88
2022-07-29T02:13:44.833Z,81.80
2022-07-29T02:16:50.742Z,82.62
2022-07-29T02:19:57.775Z,82.36
2022-07-29T02:23:01.316Z,83.11
2022-07-29T02:26:03.996Z,81.22
2022-07-29T02:29:08.291Z,80.75
2022-07-29T02:32:12.160Z,79.99
2022-07-29T02:35:17.010Z,78.95
2022-07-29T02:38:39.720Z,77.96
2022-07-29T02:41:52.625Z,79.08
2022-07-29T02:44:55.159Z,78.62
2022-07-29T02:48:00.755Z,79.81
2022-07-29T02:51:09.251Z,79.22
2022-07-29T02:54:37.778Z,79.97
2022-07-29T02:57:54.549Z,80.63
2022-07-29T03:01:21.575Z,82.86
2022-07-29T03:04:26.759Z,81.28
2022-07-29T03:07:30.307Z,81.07
2022-07-29T03:10:33.040Z,80.61
2022-07-29T03:13:36.536Z,80.45
2022-07-29T03:16:41.261Z,81.89
2022-07-29T03:19:44.200Z,80.72
2022-07-29T03:22:49.937Z,81.58
2022-07-29T03:25:52.622Z,82.75
2022-07-29T03:28:55.880Z,80.94
2022-07-29T03:31:58.230Z,80.13
2022-07-29T03:35:00.915Z,80.32
2022-07-29T03:38:03.631Z,80.66
2022-07-29T03:41:11.689Z,81.04
2022-07-29T03:44:16.819Z,83.39
2022-07-29T03:47:43.708Z,83.68
2022-07-29T03:50:47.102Z,82.93
2022-07-29T03:53:49.508Z,82.45
2022-07-29T03:56:53.974Z,82.09
2022-07-29T03:59:56.620Z,81.79
2022-07-29T04:02:59.146Z,82.16
2022-07-29T04:06:09.464Z,80.86
2022-07-29T04:09:12.171Z,80.34
2022-07-29T04:12:14.400Z,79.88
2022-07-29T04:15:16.845Z,79.40
2022-07-29T04:18:19.172Z,78.93
2022-07-29T04:21:21.524Z,79.09
2022-07-29T04:24:23.770Z,79.15
2022-07-29T04:27:26.565Z,79.32
2022-07-29T04:30:29.938Z,79.53
2022-07-29T04:33:32.235Z,80.23
2022-07-29T04:36:34.584Z,80.25
2022-07-29T04:39:36.837Z,81.03
2022-07-29T04:42:46.211Z,81.21
2022-07-29T04:45:49.379Z,79.55
2022-07-29T04:48:51.631Z,77.36
2022-07-29T04:51:54.221Z,76.39
2022-07-29T04:54:56.461Z,75.63
2022-07-29T04:57:58.760Z,75.09
2022-07-29T05:01:01.064Z,75.43
2022-07-29T05:04:03.469Z,74.65
2022-07-29T05:07:05.801Z,73.53
2022-07-29T05:10:10.799Z,73.88
2022-07-29T05:13:13.478Z,73.63
2022-07-29T05:16:15.936Z,73.67
2022-07-29T05:19:18.703Z,73.77
2022-07-29T05:22:27.636Z,74.28
2022-07-29T05:25:42.958Z,74.32
2022-07-29T05:28:46.396Z,75.86
2022-07-29T05:31:48.747Z,74.19
2022-07-29T05:34:51.896Z,72.43
2022-07-29T05:37:54.364Z,71.85
2022-07-29T05:40:59.161Z,67.45
2022-07-29T05:44:01.549Z,67.05
2022-07-29T05:47:04.045Z,65.94
2022-07-29T05:50:10.552Z,66.60
2022-07-29T05:53:20.112Z,65.90
2022-07-29T05:56:22.980Z,64.58
2022-07-29T05:59:30.107Z,63.28
2022-07-29T06:02:32.956Z,60.42
2022-07-29T06:05:35.443Z,59.79
2022-07-29T06:08:38.163Z,58.52
2022-07-29T06:11:40.936Z,58.07
2022-07-29T06:14:43.274Z,57.00
2022-07-29T06:17:59.907Z,56.12
2022-07-29T06:21:09.666Z,54.16
2022-07-29T06:24:13.918Z,54.42
2022-07-29T06:27:17.373Z,53.41
2022-07-29T06:30:19.807Z,53.49
2022-07-29T06:33:22.197Z,51.94
2022-07-29T06:36:24.613Z,51.18
2022-07-29T06:39:27.572Z,49.41
2022-07-29T06:42:29.967Z,48.90
2022-07-29T06:45:35.126Z,48.42
2022-07-29T06:48:38.189Z,48.15
2022-07-29T06:51:40.576Z,49.26
2022-07-29T06:54:48.999Z,48.51
2022-07-29T06:57:51.410Z,50.53
2022-07-29T07:00:53.927Z,51.46
2022-07-29T07:03:57.186Z,50.76
2022-07-29T07:07:00.604Z,50.38
2022-07-29T07:10:02.945Z,50.74
2022-07-29T07:13:06.417Z,51.12
2022-07-29T07:16:11.367Z,48.88
2022-07-29T07:19:14.368Z,49.02
2022-07-29T07:22:16.904Z,48.37
2022-07-29T07:25:19.465Z,48.29
2022-07-29T07:28:24.971Z,47.13
2022-07-29T07:31:27.689Z,46.44
2022-07-29T07:34:31.151Z,46.22
2022-07-29T07:37:33.888Z,44.69
2022-07-29T07:40:36.610Z,44.78
2022-07-29T07:43:39.123Z,44.96
2022-07-29T07:46:41.476Z,44.03
2022-07-29T07:49:45.055Z,43.87
2022-07-29T07:52:52.970Z,42.78
2022-07-29T07:56:12.281Z,42.08
2022-07-29T07:59:15.142Z,42.93
2022-07-29T08:02:17.740Z,41.93
2022-07-29T08:05:20.267Z,42.20
2022-07-29T08:08:22.699Z,42.24
2022-07-29T08:11:25.048Z,41.60
2022-07-29T08:14:27.460Z,42.61
2022-07-29T08:17:29.856Z,41.76
2022-07-29T08:20:34.273Z,40.10
2022-07-29T08:23:46.427Z,39.98
2022-07-29T08:26:52.033Z,41.02
2022-07-29T08:29:56.820Z,41.17
2022-07-29T08:32:59.866Z,41.12
2022-07-29T08:36:02.290Z,42.06
2022-07-29T08:39:05.323Z,40.28
2022-07-29T08:42:08.161Z,40.03
2022-07-29T08:45:11.041Z,40.17
2022-07-29T08:48:14.629Z,38.67
2022-07-29T08:51:20.663Z,39.35
2022-07-29T08:54:25.017Z,38.09
2022-07-29T08:57:28.474Z,37.42
2022-07-29T09:00:34.071Z,35.88
2022-07-29T09:03:38.390Z,34.06
2022-07-29T09:06:45.039Z,33.51
2022-07-29T09:09:47.948Z,32.78
2022-07-29T09:12:50.542Z,32.46
2022-07-29T09:15:53.771Z,32.19
2022-07-29T09:18:56.187Z,32.74
2022-07-29T09:22:01.144Z,33.30
2022-07-29T09:25:06.273Z,32.13
2022-07-29T09:28:17.655Z,32.26
2022-07-29T09:31:33.062Z,31.22
2022-07-29T09:34:35.643Z,31.17
2022-07-29T09:37:38.076Z,31.35
2022-07-29T09:40:40.941Z,31.07
2022-07-29T09:43:55.158Z,31.49
2022-07-29T09:46:59.813Z,33.16
2022-07-29T09:50:02.305Z,32.91
2022-07-29T09:53:05.004Z,33.05
2022-07-29T09:56:07.396Z,33.58
2022-07-29T09:59:12.280Z,32.77
2022-07-29T10:02:20.317Z,32.34
2022-07-29T10:05:36.529Z,31.30
2022-07-29T10:08:39.517Z,31.11
2022-07-29T10:11:49.754Z,30.94
2022-07-29T10:14:52.684Z,33.12
2022-07-29T10:17:58.518Z,33.68
2022-07-29T10:21:02.203Z,32.54
2022-07-29T10:24:05.954Z,32.81
2022-07-29T10:27:09.785Z,33.90
2022-07-29T10:30:17.617Z,32.98
2022-07-29T10:33:42.393Z,31.92
2022-07-29T10:37:21.184Z,29.95
2022-07-29T10:41:03.645Z,32.19
2022-07-29T10:44:23.301Z,30.92
2022-07-29T10:47:27.522Z,31.84
2022-07-29T10:50:56.372Z,30.76
2022-07-29T10:54:00.803Z,30.16
2022-07-29T10:57:53.775Z,29.55
2022-07-29T11:00:54.584Z,28.71
2022-07-29T11:03:58.799Z,29.17
2022-07-29T11:07:04.025Z,30.00
2022-07-29T11:10:12.711Z,30.45
2022-07-29T11:13:55.875Z,31.57
2022-07-29T11:17:06.411Z,32.05
2022-07-29T11:20:38.311Z,34.40
2022-07-29T11:23:44.625Z,33.56
2022-07-29T11:27:20.085Z,35.95
2022-07-29T11:30:42.660Z,36.40
2022-07-29T11:33:56.223Z,36.26
2022-07-29T11:37:08.440Z,36.25
2022-07-29T11:40:13.279Z,35.18
2022-07-29T11:43:54.574Z,38.38
2022-07-29T11:46:57.119Z,42.20
2022-07-29T11:50:03.479Z,39.29
2022-07-29T11:53:14.870Z,38.96
2022-07-29T11:56:22.486Z,38.30
2022-07-29T11:59:33.041Z,37.39
2022-07-29T12:02:43.398Z,32.11
2022-07-29T12:07:03.869Z,33.93
2022-07-29T12:09:14.365Z,30.20
2022-07-29T12:12:18.072Z,29.72
2022-07-29T12:15:39.231Z,28.19
2022-07-29T12:18:57.457Z,30.71
2022-07-29T12:22:02.238Z,31.50
2022-07-29T12:28:39.429Z,33.08
2022-07-29T12:31:45.313Z,33.78
2022-07-29T12:34:48.665Z,37.71
2022-07-29T12:37:53.161Z,37.99
2022-07-29T12:40:58.684Z,35.60
2022-07-29T12:44:01.082Z,34.75
2022-07-29T12:47:06.366Z,31.45
2022-07-29T12:50:16.067Z,31.40
2022-07-29T12:53:22.137Z,31.28
2022-07-29T12:56:42.221Z,29.59
2022-07-29T12:59:46.063Z,31.27
2022-07-29T13:02:56.605Z,29.45
2022-07-29T13:05:59.177Z,29.30
2022-07-29T13:09:18.399Z,27.83
2022-07-29T13:12:21.944Z,28.45
2022-07-29T13:15:24.330Z,27.00
2022-07-29T13:18:35.055Z,26.96
2022-07-29T13:21:39.063Z,26.74
2022-07-29T13:24:51.487Z,27.17
2022-07-29T13:27:55.464Z,27.07
2022-07-29T13:30:58.028Z,28.09
2022-07-29T13:34:00.408Z,28.03
2022-07-29T13:37:03.260Z,26.82
2022-07-29T13:40:08.947Z,26.41
2022-07-29T13:43:12.003Z,26.53
2022-07-29T13:46:14.436Z,26.44
2022-07-29T13:49:16.889Z,26.77
2022-07-29T13:52:19.258Z,27.16
2022-07-29T13:55:22.188Z,27.69
2022-07-29T13:58:24.622Z,28.04
2022-07-29T14:01:28.629Z,27.58
2022-07-29T14:04:31.172Z,28.39
2022-07-29T14:07:33.966Z,28.64
2022-07-29T14:10:36.504Z,29.01
2022-07-29T14:13:38.944Z,27.84
2022-07-29T14:16:47.601Z,31.43
2022-07-29T14:19:52.911Z,32.57
2022-07-29T14:22:55.228Z,30.83
2022-07-29T14:25:57.773Z,30.40
2022-07-29T14:29:00.138Z,29.90
2022-07-29T14:32:05.488Z,30.63
2022-07-29T14:35:08.959Z,30.03
2022-07-29T14:38:11.423Z,28.97
2022-07-29T14:41:13.835Z,29.68
2022-07-29T14:44:16.538Z,30.09
2022-07-29T14:47:18.919Z,31.06
2022-07-29T14:50:23.367Z,31.11
2022-07-29T14:53:35.130Z,31.39
2022-07-29T14:56:37.860Z,31.06
2022-07-29T14:59:49.352Z,31.49
2022-07-29T15:03:02.055Z,31.64
2022-07-29T15:06:04.895Z,31.57
2022-07-29T15:09:07.466Z,31.80
2022-07-29T15:12:11.469Z,31.93
2022-07-29T15:15:13.945Z,32.31
2022-07-29T15:18:16.385Z,33.64
2022-07-29T15:21:28.676Z,35.68
2022-07-29T15:24:31.451Z,35.55
2022-07-29T15:27:34.041Z,37.37
2022-07-29T15:30:41.630Z,36.34
2022-07-29T15:33:44.179Z,35.52
2022-07-29T15:36:52.598Z,36.68
2022-07-29T15:39:59.750Z,35.80
2022-07-29T15:43:06.851Z,35.14
2022-07-29T15:46:27.900Z,35.71
2022-07-29T15:49:48.213Z,37.27
2022-07-29T15:52:52.002Z,37.50
2022-07-29T15:55:54.470Z,37.81
2022-07-29T15:58:57.523Z,39.93
2022-07-29T16:02:00.678Z,38.38
2022-07-29T16:05:03.225Z,39.87
2022-07-29T16:08:12.703Z,38.98
2022-07-29T16:11:15.406Z,38.59
2022-07-29T16:14:18.443Z,38.99
2022-07-29T16:17:20.910Z,40.39
2022-07-29T16:20:23.351Z,40.74
2022-07-29T16:23:25.822Z,40.22
2022-07-29T16:26:28.387Z,40.56
2022-07-29T16:29:32.079Z,41.33
2022-07-29T16:32:41.287Z,41.12
2022-07-29T16:35:43.731Z,40.94
2022-07-29T16:38:53.303Z,41.12
2022-07-29T16:41:59.839Z,41.66
2022-07-29T16:45:04.915Z,41.60
2022-07-29T16:48:07.606Z,41.81
2022-07-29T16:51:10.461Z,42.15
2022-07-29T16:54:16.814Z,42.34
2022-07-29T16:57:19.218Z,41.93
2022-07-29T17:00:22.216Z,43.79
2022-07-29T17:03:24.655Z,43.10
2022-07-29T17:06:27.331Z,42.72
2022-07-29T17:09:29.679Z,43.05
2022-07-29T17:12:32.502Z,42.94
2022-07-29T17:15:36.376Z,43.80
2022-07-29T17:18:39.063Z,43.68
2022-07-29T17:21:48.374Z,44.27
2022-07-29T17:24:51.839Z,45.53
2022-07-29T17:28:00.516Z,46.14
2022-07-29T17:31:03.392Z,46.66
2022-07-29T17:34:06.821Z,47.59
2022-07-29T17:37:11.778Z,49.69
2022-07-29T17:40:14.193Z,49.93
2022-07-29T17:43:16.605Z,50.36
2022-07-29T17:46:20.077Z,51.11
2022-07-29T17:49:22.698Z,51.72
2022-07-29T17:52:25.066Z,52.70
2022-07-29T17:55:27.784Z,52.25
2022-07-29T17:58:30.676Z,52.40
2022-07-29T18:01:33.938Z,54.40
2022-07-29T18:04:36.384Z,55.62
2022-07-29T18:07:38.894Z,56.70
2022-07-29T18:10:41.513Z,57.59
2022-07-29T18:13:44.044Z,57.40
2022-07-29T18:16:46.517Z,57.51
2022-07-29T18:19:49.140Z,58.72
2022-07-29T18:22:51.489Z,58.96
2022-07-29T18:25:53.928Z,59.71
2022-07-29T18:28:56.297Z,60.62
2022-07-29T18:32:01.867Z,61.48
2022-07-29T18:35:06.406Z,59.79
2022-07-29T18:38:08.908Z,60.13
2022-07-29T18:41:11.597Z,60.87
2022-07-29T18:44:17.021Z,62.88
2022-07-29T18:47:19.701Z,64.14
2022-07-29T18:50:28.789Z,63.79
2022-07-29T18:53:31.449Z,63.99
2022-07-29T18:56:39.374Z,64.51
2022-07-29T18:59:43.350Z,64.48
2022-07-29T19:02:45.929Z,64.89
2022-07-29T19:05:48.353Z,65.73
2022-07-29T19:08:52.392Z,65.52
2022-07-29T19:11:56.735Z,66.55
2022-07-29T19:15:00.524Z,66.85
2022-07-29T19:18:03.015Z,67.16
2022-07-29T19:21:05.506Z,67.69
2022-07-29T19:24:12.316Z,68.39
2022-07-29T19:27:17.285Z,68.96
2022-07-29T19:30:19.744Z,66.36
2022-07-29T19:33:22.264Z,56.13
2022-07-29T19:36:24.731Z,57.35
2022-07-29T19:39:34.974Z,55.83
2022-07-29T19:42:38.090Z,55.58
2022-07-29T19:45:40.735Z,57.01
2022-07-29T19:48:43.191Z,56.04
2022-07-29T19:51:45.727Z,56.11
2022-07-29T19:54:48.224Z,55.90
2022-07-29T19:57:51.193Z,56.13
2022-07-29T20:00:53.887Z,56.13
2022-07-29T20:03:56.327Z,56.49
2022-07-29T20:07:01.524Z,56.71
2022-07-29T20:10:06.456Z,57.02
2022-07-29T20:13:08.887Z,57.27
2022-07-29T20:16:11.444Z,57.28
2022-07-29T20:19:13.903Z,57.46
2022-07-29T20:22:21.095Z,57.89
2022-07-29T20:25:24.051Z,58.13
2022-07-29T20:28:26.507Z,58.32
2022-07-29T20:31:30.631Z,58.50
2022-07-29T20:34:33.288Z,57.97
2022-07-29T20:37:52.253Z,57.83
2022-07-29T20:40:58.918Z,57.20
2022-07-29T20:44:04.705Z,57.00
2022-07-29T20:47:07.174Z,57.01
2022-07-29T20:50:10.206Z,57.27
2022-07-29T20:53:12.796Z,57.26
2022-07-29T20:56:15.208Z,57.27
2022-07-29T20:59:17.847Z,57.39
2022-07-29T21:02:20.321Z,56.97
2022-07-29T21:05:23.116Z,56.71
2022-07-29T21:08:26.188Z,56.81
2022-07-29T21:11:43.162Z,56.87
2022-07-29T21:14:48.090Z,56.65
2022-07-29T21:17:52.720Z,56.67
2022-07-29T21:20:55.222Z,56.76
2022-07-29T21:23:57.721Z,56.71
2022-07-29T21:27:21.298Z,56.65
2022-07-29T21:30:24.349Z,56.99
2022-07-29T21:33:28.712Z,56.99
2022-07-29T21:36:48.520Z,57.25
2022-07-29T21:39:51.383Z,57.02
2022-07-29T21:42:53.876Z,57.20
2022-07-29T21:45:57.719Z,57.27
2022-07-29T21:49:00.251Z,57.25
2022-07-29T21:52:02.669Z,57.08
2022-07-29T21:55:05.580Z,57.18
2022-07-29T21:58:08.548Z,57.51
2022-07-29T22:01:11.117Z,57.59
2022-07-29T22:04:13.614Z,57.74
2022-07-29T22:07:16.128Z,59.00
2022-07-29T22:10:18.495Z,58.64
2022-07-29T22:13:20.951Z,59.24
2022-07-29T22:16:23.319Z,58.78
2022-07-29T22:19:27.400Z,59.97
2022-07-29T22:22:30.108Z,60.85
2022-07-29T22:25:32.727Z,62.81
2022-07-29T22:28:35.065Z,63.71
2022-07-29T22:31:37.620Z,64.57
2022-07-29T22:34:39.980Z,66.84
2022-07-29T22:37:42.445Z,67.06
2022-07-29T22:40:44.853Z,65.87
2022-07-29T22:43:47.798Z,64.73
2022-07-29T22:46:50.193Z,65.39
2022-07-29T22:49:52.713Z,64.68
2022-07-29T22:52:55.152Z,65.43
2022-07-29T22:55:57.634Z,65.13
2022-07-29T22:58:59.970Z,66.16
2022-07-29T23:02:02.365Z,66.88
2022-07-29T23:05:05.121Z,66.56
2022-07-29T23:08:09.124Z,67.65
2022-07-29T23:11:11.519Z,68.17
2022-07-29T23:14:13.930Z,67.06
2022-07-29T23:17:16.387Z,67.82
2022-07-29T23:20:19.262Z,68.75
2022-07-29T23:23:21.590Z,69.23
2022-07-29T23:26:23.994Z,69.93
2022-07-29T23:29:26.363Z,70.78
2022-07-29T23:32:28.771Z,71.17
2022-07-29T23:35:31.139Z,70.95
2022-07-29T23:38:33.592Z,69.58
2022-07-29T23:41:36.001Z,69.04
2022-07-29T23:44:38.511Z,70.40
2022-07-29T23:47:41.380Z,71.38
2022-07-29T23:50:44.108Z,71.95
2022-07-29T23:53:53.908Z,71.92
2022-07-29T23:56:58.099Z,72.09
